createdAt,value
2018-10-11T04:32:39.766Z,100343.00
2018-10-11T07:03:20.408Z,100385.00
2018-10-11T07:06:36.453Z,100388.00
2018-10-11T07:09:52.100Z,100389.00
2018-10-11T07:12:24.981Z,100388.00
2018-10-11T07:15:49.619Z,100383.00
2018-10-11T07:18:52.280Z,100387.00
2018-10-11T07:21:29.477Z,100386.00
2018-10-11T08:21:25.450Z,100407.00
2018-10-11T09:51:54.667Z,100385.00
2018-10-11T09:55:11.670Z,100389.00
2018-10-11T10:02:13.055Z,100390.00
2018-10-11T10:05:29.546Z,100392.00
2018-10-11T10:13:57.228Z,100397.00
2018-10-11T11:02:16.097Z,100339.00
2018-10-11T11:04:45.704Z,100352.00
2018-10-11T11:07:15.334Z,100354.00
2018-10-11T11:09:45.087Z,100346.00
2018-10-11T11:12:24.178Z,100349.00
2018-10-11T11:14:55.201Z,100347.00
2018-10-11T11:17:24.801Z,100348.00
2018-10-11T11:19:54.306Z,100352.00
2018-10-11T11:22:25.802Z,100345.00
2018-10-11T11:25:03.798Z,100348.00
2018-10-11T11:27:40.664Z,100347.00
2018-10-11T11:35:55.951Z,100333.00
2018-10-11T11:38:29.953Z,100340.00
2018-10-11T11:41:22.115Z,100332.00
2018-10-11T11:44:29.408Z,100328.00
2018-10-11T11:58:09.716Z,100323.00
2018-10-11T12:01:13.054Z,100317.00
2018-10-11T12:48:50.542Z,100292.00
2018-10-11T12:51:24.017Z,100289.00
2018-10-11T12:53:58.623Z,100285.00
2018-10-11T12:56:36.636Z,100282.00
2018-10-11T12:59:11.054Z,100277.00
2018-10-11T13:01:49.928Z,100278.00
2018-10-11T13:04:20.762Z,100276.00
2018-10-11T13:06:52.213Z,100271.00
2018-10-11T13:09:53.752Z,100266.00
2018-10-11T13:16:14.895Z,100263.00
2018-10-11T13:18:57.868Z,100260.00
2018-10-11T13:21:36.565Z,100261.00
2018-10-11T13:24:23.872Z,100256.00
2018-10-11T13:27:00.333Z,100256.00
2018-10-11T13:29:40.564Z,100264.00
2018-10-11T13:32:18.351Z,100258.00
2018-10-11T13:35:07.793Z,100254.00
2018-10-11T13:37:52.092Z,100248.00
2018-10-11T13:43:18.601Z,100258.00
2018-10-11T13:45:59.021Z,100262.00
2018-10-11T13:48:39.374Z,100251.00
2018-10-11T13:51:10.684Z,100253.00
2018-10-11T13:53:53.130Z,100252.00
2018-10-11T13:56:28.230Z,100249.00
2018-10-11T13:59:06.964Z,100254.00
2018-10-11T14:01:41.561Z,100255.00
2018-10-11T14:04:15.135Z,100257.00
2018-10-11T14:07:17.509Z,100264.00
2018-10-11T14:09:49.880Z,100258.00
2018-10-11T14:12:23.012Z,100255.00
2018-10-11T14:17:37.778Z,100254.00
2018-10-11T14:20:17.248Z,100253.00
2018-10-11T14:22:50.912Z,100253.00
2018-10-11T14:25:22.167Z,100250.00
2018-10-11T14:28:03.252Z,100251.00
2018-10-11T14:30:35.758Z,100252.00
2018-10-11T14:33:07.983Z,100248.00
2018-10-11T14:35:39.034Z,100254.00
2018-10-11T14:38:15.435Z,100255.00
2018-10-11T14:40:46.501Z,100261.00
2018-10-11T14:46:13.285Z,100265.00
2018-10-11T14:49:52.690Z,100264.00
2018-10-11T14:52:23.672Z,100270.00
2018-10-11T14:54:54.062Z,100265.00
2018-10-11T14:57:23.960Z,100261.00
2018-10-11T14:59:55.552Z,100262.00
2018-10-11T15:02:25.171Z,100255.00
2018-10-11T15:04:56.202Z,100251.00
2018-10-11T15:07:29.478Z,100254.00
2018-10-11T15:09:59.289Z,100259.00
2018-10-11T15:12:29.012Z,100260.00
2018-10-11T15:14:59.438Z,100261.00
2018-10-11T15:17:29.978Z,100261.00
2018-10-11T15:19:59.451Z,100259.00
2018-10-11T15:22:29.128Z,100265.00
2018-10-11T15:25:01.124Z,100266.00
2018-10-11T15:27:30.936Z,100268.00
2018-10-11T15:30:01.775Z,100272.00
2018-10-11T15:32:36.571Z,100269.00
2018-10-11T15:35:12.119Z,100268.00
2018-10-11T15:37:46.637Z,100271.00
2018-10-11T15:40:25.566Z,100268.00
2018-10-11T15:42:55.748Z,100277.00
2018-10-11T15:45:26.517Z,100272.00
2018-10-11T15:48:05.471Z,100267.00
2018-10-11T15:50:38.975Z,100271.00
2018-10-11T15:53:11.385Z,100272.00
2018-10-11T15:55:48.866Z,100275.00
2018-10-11T15:58:28.049Z,100269.00
2018-10-11T16:01:04.513Z,100271.00
2018-10-11T16:03:35.925Z,100272.00
2018-10-11T16:06:12.799Z,100269.00
2018-10-11T16:08:45.419Z,100268.00
2018-10-11T16:11:16.962Z,100269.00
2018-10-11T16:13:48.686Z,100270.00
2018-10-11T16:16:18.442Z,100269.00
2018-10-11T16:18:48.295Z,100275.00
2018-10-11T16:21:30.761Z,100274.00
2018-10-11T16:24:10.817Z,100276.00
2018-10-11T16:26:56.233Z,100281.00
2018-10-11T16:29:26.249Z,100282.00
2018-10-11T16:31:56.166Z,100282.00
2018-10-11T16:34:26.093Z,100286.00
2018-10-11T16:36:59.578Z,100286.00
2018-10-11T16:39:35.302Z,100294.00
2018-10-11T16:42:08.451Z,100296.00
2018-10-11T16:44:38.857Z,100293.00
2018-10-11T16:47:10.881Z,100299.00
2018-10-11T16:49:49.740Z,100302.00
2018-10-11T16:52:23.128Z,100308.00
2018-10-11T16:54:59.780Z,100316.00
2018-10-11T16:57:37.991Z,100315.00
2018-10-11T17:00:11.231Z,100318.00
2018-10-11T17:02:41.191Z,100320.00
2018-10-11T17:05:14.696Z,100319.00
2018-10-11T17:07:46.870Z,100314.00
2018-10-11T17:10:18.025Z,100321.00
2018-10-11T17:12:47.683Z,100322.00
2018-10-11T17:15:17.360Z,100328.00
2018-10-11T17:17:47.164Z,100330.00
2018-10-11T17:20:20.308Z,100334.00
2018-10-11T17:22:50.070Z,100331.00
2018-10-11T17:25:20.163Z,100328.00
2018-10-11T17:27:55.467Z,100329.00
2018-10-11T17:30:29.019Z,100330.00
2018-10-11T17:33:01.691Z,100332.00
2018-10-11T17:35:31.532Z,100333.00
2018-10-11T17:38:08.495Z,100331.00
2018-10-11T17:40:44.643Z,100332.00
2018-10-11T17:43:17.476Z,100335.00
2018-10-11T17:45:48.174Z,100336.00
2018-10-11T17:48:18.108Z,100332.00
2018-10-11T17:50:48.016Z,100328.00
2018-10-11T17:53:19.862Z,100327.00
2018-10-11T17:55:50.706Z,100334.00
2018-10-11T17:58:20.690Z,100332.00
2018-10-11T18:00:54.231Z,100334.00
2018-10-11T18:03:28.442Z,100335.00
2018-10-11T18:06:03.902Z,100339.00
2018-10-11T18:08:34.668Z,100342.00
2018-10-11T18:11:05.421Z,100342.00
2018-10-11T18:13:36.110Z,100347.00
2018-10-11T18:16:07.732Z,100351.00
2018-10-11T18:18:40.550Z,100349.00
2018-10-11T18:21:11.539Z,100353.00
2018-10-11T18:23:48.441Z,100354.00
2018-10-11T18:26:22.421Z,100349.00
2018-10-11T18:28:52.982Z,100343.00
2018-10-11T18:31:22.654Z,100343.00
2018-10-11T18:34:27.570Z,100344.00
2018-10-11T18:37:00.824Z,100350.00
2018-10-11T18:39:40.429Z,100345.00
2018-10-11T18:42:25.981Z,100354.00
2018-10-11T18:45:11.053Z,100355.00
2018-10-11T18:47:44.667Z,100363.00
2018-10-11T18:51:26.616Z,100369.00
2018-10-11T18:54:01.547Z,100377.00
2018-10-11T18:56:46.039Z,100378.00
2018-10-11T18:59:19.282Z,100381.00
2018-10-11T19:01:51.299Z,100387.00
2018-10-11T19:04:21.260Z,100384.00
2018-10-11T19:06:55.376Z,100384.00
2018-10-11T19:09:39.010Z,100391.00
2018-10-11T19:12:12.498Z,100389.00
2018-10-11T19:14:48.836Z,100385.00
2018-10-11T19:17:27.910Z,100390.00
2018-10-11T19:20:02.346Z,100388.00
2018-10-11T19:22:34.769Z,100393.00
2018-10-11T19:25:05.323Z,100391.00
2018-10-11T19:27:37.767Z,100390.00
2018-10-11T19:30:07.681Z,100390.00
2018-10-11T19:32:39.068Z,100387.00
2018-10-11T19:35:25.199Z,100391.00
2018-10-11T19:38:01.492Z,100392.00
2018-10-11T19:40:31.430Z,100392.00
2018-10-11T19:43:01.923Z,100397.00
2018-10-11T19:45:31.517Z,100387.00
2018-10-11T19:48:01.528Z,100391.00
2018-10-11T19:50:30.884Z,100392.00
2018-10-11T19:53:01.215Z,100398.00
2018-10-11T19:55:30.791Z,100395.00
2018-10-11T19:58:01.324Z,100399.00
2018-10-11T20:00:40.481Z,100402.00
2018-10-11T20:03:12.503Z,100404.00
2018-10-11T20:05:44.555Z,100400.00
2018-10-11T20:08:16.555Z,100400.00
2018-10-11T20:10:45.988Z,100400.00
2018-10-11T20:13:16.140Z,100398.00
2018-10-11T20:15:46.734Z,100405.00
2018-10-11T20:18:20.933Z,100404.00
2018-10-11T20:20:50.418Z,100407.00
2018-10-11T20:23:20.585Z,100407.00
2018-10-11T20:25:51.572Z,100408.00
2018-10-11T20:28:22.133Z,100414.00
2018-10-11T20:30:52.902Z,100420.00
2018-10-11T20:33:22.473Z,100418.00
2018-10-11T20:35:52.932Z,100421.00
2018-10-11T20:38:22.404Z,100424.00
2018-10-11T20:40:51.941Z,100424.00
2018-10-11T20:43:22.321Z,100432.00
2018-10-11T20:45:53.097Z,100436.00
2018-10-11T20:48:23.042Z,100442.00
2018-10-11T20:50:56.228Z,100442.00
2018-10-11T20:53:26.824Z,100447.00
2018-10-11T20:56:06.612Z,100448.00
2018-10-11T20:58:38.546Z,100445.00
2018-10-11T21:01:08.404Z,100446.00
2018-10-11T21:03:41.163Z,100445.00
2018-10-11T21:06:11.419Z,100448.00
2018-10-11T21:08:41.129Z,100448.00
2018-10-11T21:11:12.344Z,100452.00
2018-10-11T21:13:43.010Z,100454.00
2018-10-11T21:16:16.374Z,100456.00
2018-10-11T21:19:08.323Z,100456.00
2018-10-11T21:21:38.080Z,100451.00
2018-10-11T21:24:07.728Z,100447.00
2018-10-11T21:26:37.936Z,100448.00
2018-10-11T21:29:07.615Z,100448.00
2018-10-11T21:31:37.258Z,100444.00
2018-10-11T21:34:07.348Z,100446.00
2018-10-11T21:36:37.189Z,100439.00
2018-10-11T21:39:11.646Z,100444.00
2018-10-11T21:41:42.779Z,100447.00
2018-10-11T21:44:15.068Z,100450.00
2018-10-11T21:46:48.491Z,100453.00
2018-10-11T21:49:18.593Z,100454.00
2018-10-11T21:51:51.217Z,100450.00
2018-10-11T21:54:24.312Z,100452.00
2018-10-11T21:56:54.121Z,100450.00
2018-10-11T21:59:26.181Z,100451.00
2018-10-11T22:01:57.339Z,100449.00
2018-10-11T22:04:29.346Z,100452.00
2018-10-11T22:06:59.115Z,100453.00
2018-10-11T22:09:30.040Z,100449.00
2018-10-11T22:12:02.469Z,100451.00
2018-10-11T22:14:33.184Z,100452.00
2018-10-11T22:17:03.492Z,100454.00
2018-10-11T22:19:39.792Z,100462.00
2018-10-11T22:22:10.560Z,100463.00
2018-10-11T22:24:44.984Z,100462.00
2018-10-11T22:27:14.480Z,100459.00
2018-10-11T22:29:44.117Z,100465.00
2018-10-11T22:32:13.879Z,100462.00
2018-10-11T22:34:44.389Z,100458.00
2018-10-11T22:37:15.426Z,100451.00
2018-10-11T22:39:44.936Z,100457.00
2018-10-11T22:42:14.600Z,100446.00
2018-10-11T22:44:44.673Z,100448.00
2018-10-11T22:47:14.247Z,100456.00
2018-10-11T22:49:43.776Z,100459.00
2018-10-11T22:52:14.566Z,100459.00
2018-10-11T22:54:46.622Z,100457.00
2018-10-11T22:57:19.203Z,100458.00
2018-10-11T22:59:51.739Z,100459.00
2018-10-11T23:02:21.459Z,100458.00
2018-10-11T23:04:51.079Z,100457.00
2018-10-11T23:07:20.895Z,100456.00
2018-10-11T23:09:50.830Z,100456.00
2018-10-11T23:12:23.599Z,100464.00
2018-10-11T23:14:53.734Z,100457.00
2018-10-11T23:17:25.481Z,100459.00
2018-10-11T23:19:55.346Z,100460.00
2018-10-11T23:22:25.640Z,100462.00
2018-10-11T23:24:55.437Z,100471.00
2018-10-11T23:27:25.304Z,100469.00
2018-10-11T23:29:55.115Z,100466.00
2018-10-11T23:32:31.947Z,100469.00
2018-10-11T23:35:03.052Z,100462.00
2018-10-11T23:37:32.677Z,100462.00
2018-10-11T23:40:02.318Z,100458.00
2018-10-11T23:42:32.930Z,100461.00
2018-10-11T23:45:02.751Z,100460.00
2018-10-11T23:47:32.373Z,100461.00
2018-10-11T23:50:01.892Z,100469.00
2018-10-11T23:52:31.332Z,100472.00
2018-10-11T23:55:00.960Z,100481.00
2018-10-11T23:57:31.368Z,100479.00
